Time;durP1;ratioP1;P1;durP2;ratioP2;P2;SDS_P1;SDS_P2;PMS_P1;PMS_P2;Temp;Humidity;BMP_temperature;BMP_pressure;BME280_temperature;BME280_humidity;BME280_pressure;Samples;Min_cycle;Max_cycle;Signal;HPM_P1;HPM_P2
2023/08/11 00:00:25;;;;;;;8.23;6.40;;;17.80;23.40;;;;;;5006720;28;20483;-69
2023/08/11 00:02:51;;;;;;;9.20;6.73;;;17.80;23.30;;;;;;5001690;28;20976;-69
2023/08/11 00:05:19;;;;;;;8.30;6.90;;;17.70;23.50;;;;;;5010523;28;20465;-68
2023/08/11 00:07:46;;;;;;;9.57;6.80;;;17.70;23.60;;;;;;5008450;28;20491;-69
2023/08/11 00:10:14;;;;;;;9.97;6.93;;;17.70;23.70;;;;;;5005766;28;20475;-68
2023/08/11 00:12:41;;;;;;;9.10;6.80;;;17.60;23.80;;;;;;5007513;28;20467;-68
2023/08/11 00:15:08;;;;;;;12.83;7.93;;;17.60;24.00;;;;;;5005613;28;20460;-68
2023/08/11 00:17:35;;;;;;;11.30;8.17;;;17.60;24.00;;;;;;5006062;28;21476;-68
2023/08/11 00:20:03;;;;;;;11.40;7.87;;;17.50;24.30;;;;;;5004042;28;20453;-69
2023/08/11 00:22:29;;;;;;;11.00;8.87;;;17.50;24.40;;;;;;5004867;28;20735;-68
2023/08/11 00:24:56;;;;;;;12.37;7.90;;;17.50;24.60;;;;;;5007823;28;20460;-69
2023/08/11 00:27:24;;;;;;;9.83;7.73;;;17.40;24.90;;;;;;5002315;28;20499;-68
2023/08/11 00:29:54;;;;;;;11.07;8.13;;;17.40;25.10;;;;;;5006919;28;20490;-68
2023/08/11 00:32:21;;;;;;;10.97;7.23;;;17.30;25.40;;;;;;5004032;28;20482;-69
2023/08/11 00:34:48;;;;;;;9.50;7.50;;;17.20;25.40;;;;;;5006877;28;20451;-68
2023/08/11 00:37:14;;;;;;;9.43;7.23;;;17.20;25.50;;;;;;5007040;28;20552;-69
2023/08/11 00:39:41;;;;;;;9.83;8.20;;;17.20;25.70;;;;;;5007816;28;20532;-69
2023/08/11 00:42:08;;;;;;;11.07;7.43;;;17.20;25.80;;;;;;5004403;28;20471;-69
2023/08/11 00:44:36;;;;;;;11.37;7.87;;;17.20;26.00;;;;;;5010316;28;20983;-68
2023/08/11 00:47:03;;;;;;;11.73;8.60;;;17.20;26.50;;;;;;4999240;28;20488;-68
2023/08/11 00:49:30;;;;;;;10.77;7.60;;;17.10;26.80;;;;;;5002699;28;20475;-68
2023/08/11 00:51:57;;;;;;;10.90;8.13;;;17.10;26.80;;;;;;5002670;28;20474;-69
2023/08/11 00:54:25;;;;;;;13.43;9.13;;;17.10;27.00;;;;;;5007598;28;20471;-69
2023/08/11 00:56:52;;;;;;;11.77;7.93;;;17.10;26.90;;;;;;5000108;28;20464;-68
2023/08/11 00:59:20;;;;;;;12.70;9.23;;;17.10;27.00;;;;;;5004900;28;20467;-69
2023/08/11 01:01:48;;;;;;;10.80;8.50;;;17.00;27.00;;;;;;5006317;28;20565;-69
2023/08/11 01:04:15;;;;;;;10.47;8.37;;;17.00;27.30;;;;;;5004147;28;20479;-69
2023/08/11 01:06:46;;;;;;;10.73;8.27;;;17.00;28.20;;;;;;5006797;28;20504;-68
2023/08/11 01:09:24;;;;;;;10.57;8.40;;;17.00;27.70;;;;;;4999511;28;20490;-68
2023/08/11 01:12:03;;;;;;;12.20;9.13;;;16.90;28.10;;;;;;5003184;28;20463;-68
2023/08/11 01:14:37;;;;;;;12.97;8.87;;;16.90;28.20;;;;;;5002919;28;20475;-69
2023/08/11 01:17:09;;;;;;;9.83;7.80;;;16.80;28.20;;;;;;5005569;28;20479;-69
2023/08/11 01:19:37;;;;;;;11.70;8.60;;;16.80;28.10;;;;;;5007004;28;20452;-69
2023/08/11 01:22:08;;;;;;;15.90;8.37;;;16.80;28.00;;;;;;5001468;28;20542;-69
2023/08/11 01:24:37;;;;;;;12.23;8.83;;;16.80;28.00;;;;;;5002629;28;20468;-69
2023/08/11 01:27:05;;;;;;;10.93;7.57;;;16.70;28.00;;;;;;5003252;28;20487;-69
2023/08/11 01:29:32;;;;;;;8.70;6.97;;;16.70;27.70;;;;;;5002761;28;20483;-69
2023/08/11 01:31:58;;;;;;;11.20;6.90;;;16.70;27.60;;;;;;5003830;28;21706;-69
2023/08/11 01:34:25;;;;;;;13.07;7.90;;;16.60;27.50;;;;;;5005274;28;21075;-69
2023/08/11 01:36:57;;;;;;;10.90;7.40;;;16.60;27.50;;;;;;5005238;28;20459;-69
2023/08/11 01:39:24;;;;;;;10.30;6.83;;;16.60;27.70;;;;;;4998999;28;20471;-69
2023/08/11 01:41:53;;;;;;;10.70;7.40;;;16.60;27.60;;;;;;5005221;28;20478;-69
2023/08/11 01:44:20;;;;;;;9.43;6.90;;;16.50;27.50;;;;;;5004058;28;20463;-69
2023/08/11 01:46:48;;;;;;;9.87;7.17;;;16.50;27.60;;;;;;5004851;28;20990;-69
2023/08/11 01:49:15;;;;;;;9.73;7.43;;;16.50;27.60;;;;;;5003767;28;20460;-68
2023/08/11 01:51:43;;;;;;;10.80;7.33;;;16.50;27.70;;;;;;5005426;28;20481;-68
2023/08/11 01:54:10;;;;;;;10.73;6.63;;;16.40;27.60;;;;;;5000293;28;20554;-68
2023/08/11 01:56:38;;;;;;;13.37;7.77;;;16.50;27.60;;;;;;5004746;28;20475;-68
2023/08/11 01:59:12;;;;;;;10.67;7.73;;;16.50;27.90;;;;;;5000446;28;20863;-68
2023/08/11 02:01:40;;;;;;;9.20;6.93;;;16.40;28.00;;;;;;5001181;28;20482;-68
2023/08/11 02:04:08;;;;;;;9.13;7.57;;;16.40;27.90;;;;;;5008215;28;20472;-69
2023/08/11 02:06:35;;;;;;;10.00;7.10;;;16.30;27.80;;;;;;5001013;28;20464;-68
2023/08/11 02:09:04;;;;;;;11.50;7.37;;;16.30;27.70;;;;;;5003822;28;20484;-68
2023/08/11 02:11:31;;;;;;;11.73;6.63;;;16.30;27.70;;;;;;5001623;28;20608;-68
2023/08/11 02:13:57;;;;;;;9.17;6.83;;;16.20;27.50;;;;;;5003626;28;20468;-69
2023/08/11 02:16:26;;;;;;;10.10;6.83;;;16.20;27.70;;;;;;5004953;28;20478;-69
2023/08/11 02:18:52;;;;;;;10.93;7.03;;;16.10;27.90;;;;;;5007439;28;20481;-69
2023/08/11 02:21:19;;;;;;;9.60;7.27;;;16.10;28.10;;;;;;5009663;28;20944;-69
2023/08/11 02:23:46;;;;;;;12.00;7.57;;;16.00;28.30;;;;;;5008856;28;20470;-69
2023/08/11 02:26:13;;;;;;;8.70;6.80;;;16.00;28.50;;;;;;5006754;28;20491;-69
2023/08/11 02:28:39;;;;;;;11.20;6.80;;;16.00;28.70;;;;;;5002578;28;20485;-68
2023/08/11 02:31:07;;;;;;;10.37;6.80;;;15.90;29.00;;;;;;5008646;28;20999;-68
2023/08/11 02:33:36;;;;;;;10.23;6.90;;;15.90;29.20;;;;;;5008950;28;20469;-68
2023/08/11 02:36:04;;;;;;;8.70;6.70;;;15.90;29.50;;;;;;5007306;28;20457;-69
2023/08/11 02:38:30;;;;;;;10.80;7.67;;;15.80;30.40;;;;;;5003663;28;20480;-69
2023/08/11 02:40:57;;;;;;;10.40;8.30;;;15.70;29.90;;;;;;5004304;28;20468;-69
2023/08/11 02:43:24;;;;;;;10.93;8.00;;;15.80;29.90;;;;;;4997057;28;20473;-68
2023/08/11 02:45:50;;;;;;;12.60;7.47;;;15.80;30.00;;;;;;5009346;28;20459;-69
2023/08/11 02:48:17;;;;;;;12.87;7.10;;;15.70;30.10;;;;;;5007486;28;20486;-69
2023/08/11 02:50:45;;;;;;;10.70;8.10;;;15.80;30.20;;;;;;5006816;28;20484;-69
2023/08/11 02:53:12;;;;;;;10.63;7.70;;;15.70;30.20;;;;;;5001501;28;20464;-68
2023/08/11 02:55:38;;;;;;;11.30;8.00;;;15.70;30.10;;;;;;5008921;28;20460;-68
2023/08/11 02:58:05;;;;;;;10.03;7.50;;;15.70;30.20;;;;;;5007217;28;20520;-69
2023/08/11 03:00:34;;;;;;;12.97;8.40;;;15.70;30.20;;;;;;5002410;28;20475;-69
2023/08/11 03:03:01;;;;;;;12.23;7.63;;;15.70;30.20;;;;;;5010178;28;20460;-68
2023/08/11 03:05:28;;;;;;;8.83;7.43;;;15.70;30.10;;;;;;5005452;28;20483;-68
2023/08/11 03:07:56;;;;;;;10.33;6.80;;;15.80;30.00;;;;;;5003950;28;20484;-68
2023/08/11 03:10:23;;;;;;;10.43;7.53;;;15.70;29.90;;;;;;5008933;28;20526;-69
2023/08/11 03:12:50;;;;;;;8.40;6.20;;;15.70;29.90;;;;;;5007990;28;20463;-68
2023/08/11 03:15:17;;;;;;;8.53;6.70;;;15.70;29.90;;;;;;4998412;28;20994;-69
2023/08/11 03:17:44;;;;;;;10.10;7.80;;;15.70;30.00;;;;;;5005959;28;20496;-69
2023/08/11 03:20:12;;;;;;;9.70;7.47;;;15.60;29.90;;;;;;5006762;28;20995;-69
2023/08/11 03:22:39;;;;;;;10.80;7.47;;;15.60;30.10;;;;;;5005504;28;20506;-69
2023/08/11 03:25:10;;;;;;;11.80;7.97;;;15.60;30.10;;;;;;5008304;28;20472;-69
2023/08/11 03:27:39;;;;;;;10.90;7.77;;;15.60;30.80;;;;;;5001018;28;20475;-68
2023/08/11 03:30:07;;;;;;;9.67;7.77;;;15.60;30.30;;;;;;5005539;28;20484;-68
2023/08/11 03:32:34;;;;;;;10.57;7.97;;;15.50;30.40;;;;;;5007482;28;20488;-69
2023/08/11 03:35:01;;;;;;;10.90;8.73;;;15.50;30.60;;;;;;5000822;28;20471;-69
2023/08/11 03:37:29;;;;;;;12.10;9.57;;;15.50;30.80;;;;;;5008297;28;20848;-69
2023/08/11 03:39:56;;;;;;;11.50;8.27;;;15.50;30.90;;;;;;5003870;28;20491;-68
2023/08/11 03:42:24;;;;;;;11.20;9.37;;;15.50;30.90;;;;;;5007361;28;20464;-68
2023/08/11 03:44:51;;;;;;;11.00;8.53;;;15.40;31.00;;;;;;5006972;28;20456;-69
2023/08/11 03:47:17;;;;;;;14.47;8.60;;;15.40;31.00;;;;;;5004166;28;20495;-69
2023/08/11 03:49:45;;;;;;;11.90;9.10;;;15.40;31.10;;;;;;5005019;28;20452;-69
2023/08/11 03:52:12;;;;;;;11.57;9.10;;;15.40;31.40;;;;;;5005718;28;20460;-68
2023/08/11 03:54:39;;;;;;;11.20;8.27;;;15.40;31.60;;;;;;5004684;28;20475;-68
2023/08/11 03:57:06;;;;;;;12.40;8.90;;;15.30;31.70;;;;;;5004856;28;20506;-69
2023/08/11 03:59:34;;;;;;;10.50;9.30;;;15.30;31.90;;;;;;5003411;28;20818;-70
2023/08/11 04:02:01;;;;;;;11.40;8.67;;;15.30;32.00;;;;;;5000239;28;20488;-69
2023/08/11 04:04:28;;;;;;;15.87;9.37;;;15.30;32.20;;;;;;5004657;28;20478;-66
2023/08/11 04:06:54;;;;;;;10.73;8.90;;;15.30;32.40;;;;;;5007884;28;20456;-67
2023/08/11 04:09:21;;;;;;;12.60;8.97;;;15.30;32.40;;;;;;5001210;28;20456;-63
2023/08/11 04:11:49;;;;;;;13.03;9.83;;;15.40;32.50;;;;;;5001850;28;20483;-64
2023/08/11 04:14:16;;;;;;;23.67;8.73;;;15.40;32.50;;;;;;4999770;28;20495;-65
2023/08/11 04:16:47;;;;;;;11.47;9.20;;;15.40;32.60;;;;;;5000575;28;20467;-66
2023/08/11 04:21:47;;;;;;;13.50;8.30;;;15.40;32.80;;;;;;5003633;28;20551;-67
2023/08/11 04:24:15;;;;;;;9.77;7.70;;;15.40;32.90;;;;;;5006138;28;20472;-66
2023/08/11 04:26:42;;;;;;;16.40;9.10;;;15.40;33.20;;;;;;5007111;28;20463;-64
2023/08/11 04:29:08;;;;;;;13.97;8.30;;;15.50;33.40;;;;;;4987885;28;20460;-64
2023/08/11 04:31:35;;;;;;;13.10;9.80;;;15.50;33.30;;;;;;4976498;28;20497;-63
2023/08/11 04:34:05;;;;;;;12.80;8.50;;;15.50;33.40;;;;;;4985583;28;20465;-63
2023/08/11 04:39:12;;;;;;;12.57;9.00;;;15.60;33.70;;;;;;5007312;23;20476;-65
2023/08/11 04:41:39;;;;;;;11.03;8.33;;;15.60;33.40;;;;;;5011590;28;21050;-65
2023/08/11 04:44:06;;;;;;;13.90;9.23;;;15.70;33.50;;;;;;5014242;28;20475;-65
2023/08/11 04:46:32;;;;;;;12.60;8.63;;;15.70;33.40;;;;;;5007635;28;20463;-65
2023/08/11 04:49:00;;;;;;;10.67;8.10;;;15.70;33.20;;;;;;4999783;28;20484;-64
2023/08/11 04:51:28;;;;;;;10.80;8.43;;;15.80;33.00;;;;;;5006327;28;20483;-65
2023/08/11 04:54:00;;;;;;;11.40;8.40;;;15.80;32.90;;;;;;5009342;28;20472;-67
2023/08/11 04:56:27;;;;;;;11.73;7.80;;;15.80;32.90;;;;;;5001163;28;21228;-67
2023/08/11 04:58:54;;;;;;;10.93;7.90;;;15.90;32.80;;;;;;5002378;28;21200;-66
2023/08/11 05:01:21;;;;;;;12.03;8.13;;;16.00;32.90;;;;;;5005803;28;20507;-66
2023/08/11 05:03:49;;;;;;;13.23;8.80;;;16.00;32.90;;;;;;5003657;28;20472;-66
2023/08/11 05:06:16;;;;;;;12.60;9.17;;;16.10;33.10;;;;;;5002016;28;20459;-67
2023/08/11 05:08:46;;;;;;;10.83;8.80;;;16.10;33.10;;;;;;5001276;28;20496;-64
2023/08/11 05:11:12;;;;;;;10.97;8.20;;;16.20;32.90;;;;;;5003853;28;20480;-64
2023/08/11 05:13:39;;;;;;;10.90;8.33;;;16.30;33.30;;;;;;5001942;28;20493;-64
2023/08/11 05:16:06;;;;;;;10.20;8.43;;;16.50;33.20;;;;;;5006069;28;20464;-64
2023/08/11 05:18:32;;;;;;;9.87;7.33;;;17.00;33.00;;;;;;4997530;28;21232;-64
2023/08/11 05:20:59;;;;;;;10.97;8.57;;;18.10;31.60;;;;;;5006849;28;20456;-64
2023/08/11 05:23:26;;;;;;;9.67;7.00;;;19.50;27.30;;;;;;5004748;28;20464;-64
2023/08/11 05:25:54;;;;;;;8.37;6.43;;;21.00;22.50;;;;;;5005499;28;20468;-64
2023/08/11 05:28:21;;;;;;;9.40;6.80;;;22.50;18.40;;;;;;5002341;28;20483;-65
2023/08/11 05:30:48;;;;;;;10.00;6.30;;;23.80;14.70;;;;;;5002975;28;20468;-65
2023/08/11 05:33:15;;;;;;;9.27;6.30;;;25.20;11.10;;;;;;5005655;28;20495;-65
2023/08/11 05:35:41;;;;;;;9.70;6.90;;;26.60;7.90;;;;;;4990753;28;20876;-64
2023/08/11 05:38:08;;;;;;;8.73;5.60;;;27.70;4.70;;;;;;5004370;28;20491;-65
2023/08/11 05:40:35;;;;;;;9.60;6.30;;;28.80;1.70;;;;;;4998540;28;20477;-65
2023/08/11 05:43:03;;;;;;;8.03;5.17;;;29.80;1.00;;;;;;5003961;28;20471;-65
2023/08/11 05:45:30;;;;;;;7.30;5.40;;;30.80;1.00;;;;;;5005388;28;20473;-65
2023/08/11 05:47:58;;;;;;;6.40;4.43;;;31.90;1.00;;;;;;5006483;28;20491;-65
2023/08/11 05:50:25;;;;;;;9.80;5.40;;;33.10;1.00;;;;;;5000713;28;20463;-66
2023/08/11 05:52:52;;;;;;;7.17;5.73;;;33.90;1.00;;;;;;5007441;28;20467;-66
2023/08/11 05:55:19;;;;;;;5.90;4.87;;;34.90;1.00;;;;;;5008592;28;20972;-65
2023/08/11 05:57:46;;;;;;;8.93;4.80;;;35.60;1.00;;;;;;5009464;28;20501;-65
2023/08/11 06:00:16;;;;;;;7.10;5.03;;;36.40;1.00;;;;;;5005314;28;20478;-66
2023/08/11 06:02:43;;;;;;;6.83;5.00;;;37.10;1.00;;;;;;5008144;28;20467;-66
2023/08/11 06:05:10;;;;;;;7.47;5.10;;;37.90;1.00;;;;;;5008705;28;20812;-65
2023/08/11 06:07:37;;;;;;;8.87;5.50;;;38.50;1.00;;;;;;5010121;28;20514;-65
2023/08/11 06:10:04;;;;;;;7.00;5.40;;;39.20;1.00;;;;;;5007935;28;20886;-66
2023/08/11 06:12:31;;;;;;;6.87;5.57;;;39.70;1.00;;;;;;5004956;28;21253;-65
2023/08/11 06:14:57;;;;;;;6.70;5.63;;;40.30;1.00;;;;;;5002748;28;20472;-65
2023/08/11 06:17:25;;;;;;;7.83;5.80;;;40.80;1.00;;;;;;5006275;28;20490;-66
2023/08/11 06:19:52;;;;;;;8.73;6.03;;;41.20;1.00;;;;;;5002727;28;20467;-67
2023/08/11 06:22:19;;;;;;;6.77;5.80;;;41.40;1.00;;;;;;5008326;28;21016;-65
2023/08/11 06:24:46;;;;;;;7.80;5.90;;;41.70;1.00;;;;;;5009496;28;20463;-68
2023/08/11 06:27:12;;;;;;;6.50;5.30;;;42.10;1.00;;;;;;5003997;28;20522;-67
2023/08/11 06:29:39;;;;;;;8.73;5.40;;;42.70;1.00;;;;;;5007050;28;20471;-67
2023/08/11 06:32:06;;;;;;;10.70;5.00;;;43.10;1.00;;;;;;5006558;28;21024;-67
2023/08/11 06:34:34;;;;;;;5.50;4.90;;;43.60;1.00;;;;;;5005618;28;20515;-68
2023/08/11 06:37:01;;;;;;;7.00;5.80;;;44.20;1.00;;;;;;5004124;28;20858;-68
2023/08/11 06:39:27;;;;;;;6.30;5.50;;;44.50;1.00;;;;;;5007803;28;20467;-68
2023/08/11 06:41:54;;;;;;;6.30;5.00;;;45.00;1.00;;;;;;5008498;28;20463;-68
2023/08/11 06:44:21;;;;;;;6.80;5.47;;;45.60;1.00;;;;;;5004010;28;21003;-68
2023/08/11 06:46:47;;;;;;;6.70;5.40;;;45.90;1.00;;;;;;5004766;28;20468;-67
2023/08/11 06:49:14;;;;;;;6.80;5.10;;;46.20;1.00;;;;;;5005833;28;20456;-68
2023/08/11 06:51:43;;;;;;;6.73;4.87;;;46.80;1.00;;;;;;5004806;28;20484;-68
2023/08/11 06:54:09;;;;;;;7.00;5.33;;;47.30;1.00;;;;;;5006191;28;20479;-69
2023/08/11 06:56:36;;;;;;;6.77;6.03;;;47.60;1.00;;;;;;5007329;28;20467;-69
2023/08/11 06:59:03;;;;;;;6.40;4.80;;;47.90;1.00;;;;;;5001006;28;20483;-68
2023/08/11 07:01:29;;;;;;;5.63;4.97;;;48.20;1.00;;;;;;4997329;28;20909;-69
2023/08/11 07:03:56;;;;;;;7.37;4.90;;;48.50;1.00;;;;;;5004049;28;20478;-70
2023/08/11 07:06:23;;;;;;;8.13;5.67;;;48.60;1.00;;;;;;5003102;28;20471;-70
2023/08/11 07:08:51;;;;;;;9.57;5.90;;;48.90;1.00;;;;;;5007135;28;20487;-69
2023/08/11 07:11:17;;;;;;;7.57;5.77;;;49.10;1.00;;;;;;5001379;28;20487;-68
2023/08/11 07:13:44;;;;;;;8.43;6.30;;;49.00;1.00;;;;;;4999268;28;20469;-69
2023/08/11 07:16:11;;;;;;;9.70;4.93;;;49.00;1.00;;;;;;5001485;28;20818;-70
2023/08/11 07:18:37;;;;;;;9.37;5.17;;;49.20;1.00;;;;;;5002144;28;20492;-69
2023/08/11 07:21:04;;;;;;;8.37;5.07;;;49.60;1.00;;;;;;5005409;28;20459;-66
2023/08/11 07:23:31;;;;;;;7.60;5.00;;;50.20;1.00;;;;;;5007983;28;20474;-67
2023/08/11 07:25:59;;;;;;;6.00;4.60;;;50.50;1.00;;;;;;5008809;28;20464;-67
2023/08/11 07:28:26;;;;;;;6.43;5.30;;;51.00;1.00;;;;;;5007524;28;20487;-66
2023/08/11 07:30:52;;;;;;;7.23;5.60;;;51.00;1.00;;;;;;5005258;28;20483;-66
2023/08/11 07:33:19;;;;;;;7.00;4.80;;;51.30;1.00;;;;;;5001936;28;20489;-64
2023/08/11 07:35:46;;;;;;;8.30;5.10;;;51.20;1.00;;;;;;5006403;28;20460;-66
2023/08/11 07:38:12;;;;;;;8.40;4.50;;;51.40;1.00;;;;;;5004237;28;20483;-66
2023/08/11 07:40:39;;;;;;;7.83;4.37;;;51.70;1.00;;;;;;5004346;28;20471;-66
2023/08/11 07:43:07;;;;;;;5.80;5.00;;;51.80;1.00;;;;;;5000897;28;20492;-66
2023/08/11 07:45:34;;;;;;;6.20;5.10;;;51.70;1.00;;;;;;5003963;28;20463;-66
2023/08/11 07:48:01;;;;;;;5.77;5.03;;;52.10;1.00;;;;;;5003133;28;20491;-67
2023/08/11 07:50:28;;;;;;;4.70;3.90;;;52.40;1.00;;;;;;5001485;28;20849;-65
2023/08/11 07:52:54;;;;;;;7.53;5.10;;;52.80;1.00;;;;;;5003331;28;20451;-66
2023/08/11 07:55:21;;;;;;;5.73;5.13;;;52.80;1.00;;;;;;5005534;28;20503;-67
2023/08/11 07:57:48;;;;;;;5.57;4.67;;;53.10;1.00;;;;;;5004492;28;20537;-67
2023/08/11 08:00:19;;;;;;;7.00;4.83;;;52.90;1.00;;;;;;5004139;28;20502;-66
2023/08/11 08:02:46;;;;;;;5.80;5.17;;;53.00;1.00;;;;;;5003153;28;20499;-67
2023/08/11 08:05:13;;;;;;;6.40;4.97;;;53.40;1.00;;;;;;5008538;28;20476;-66
2023/08/11 08:07:40;;;;;;;5.50;4.00;;;53.90;1.00;;;;;;5009368;28;20487;-66
2023/08/11 08:10:09;;;;;;;8.27;4.57;;;54.30;1.00;;;;;;5006794;28;20463;-67
2023/08/11 08:12:37;;;;;;;5.57;4.47;;;54.80;1.00;;;;;;5003034;28;20500;-67
2023/08/11 08:15:05;;;;;;;8.57;4.70;;;55.10;1.00;;;;;;5001475;28;20467;-68
2023/08/11 08:17:33;;;;;;;5.80;4.10;;;55.50;1.00;;;;;;4998014;28;20487;-66
2023/08/11 08:20:00;;;;;;;5.00;3.93;;;55.70;1.00;;;;;;5003750;28;20467;-69
2023/08/11 08:22:27;;;;;;;7.50;4.90;;;56.10;1.00;;;;;;5003942;28;20212;-67
2023/08/11 08:24:54;;;;;;;5.47;4.40;;;56.50;1.00;;;;;;5005971;28;20303;-66
2023/08/11 08:27:24;;;;;;;5.80;4.67;;;56.10;1.00;;;;;;5000805;28;20279;-66
2023/08/11 08:29:52;;;;;;;6.27;4.70;;;56.30;1.00;;;;;;5004541;28;20204;-67
2023/08/11 08:32:19;;;;;;;5.53;4.70;;;56.10;1.00;;;;;;5003731;28;20274;-66
2023/08/11 08:34:48;;;;;;;5.00;4.10;;;56.30;1.00;;;;;;5001278;28;20232;-66
2023/08/11 08:37:14;;;;;;;5.23;4.73;;;56.50;1.00;;;;;;5003330;28;20305;-67
2023/08/11 08:39:41;;;;;;;5.90;4.60;;;56.40;1.00;;;;;;4998470;28;20249;-68
2023/08/11 08:42:08;;;;;;;7.43;4.22;;;56.50;1.00;;;;;;5003754;28;20235;-68
2023/08/11 08:44:36;;;;;;;7.80;5.00;;;56.50;1.00;;;;;;5001040;28;20208;-68
2023/08/11 08:47:05;;;;;;;4.70;4.10;;;56.50;1.00;;;;;;5004349;28;20239;-67
2023/08/11 08:49:32;;;;;;;6.45;4.75;;;56.50;1.00;;;;;;5007144;28;20212;-67
2023/08/11 08:52:01;;;;;;;8.95;4.78;;;56.70;1.00;;;;;;5001852;28;20200;-68
2023/08/11 08:54:28;;;;;;;5.00;4.50;;;57.10;1.00;;;;;;5002474;28;20261;-66
2023/08/11 08:56:57;;;;;;;6.72;4.45;;;57.00;1.00;;;;;;4997527;28;20212;-67
2023/08/11 08:59:24;;;;;;;7.95;5.07;;;57.00;1.00;;;;;;4997130;28;20212;-66
2023/08/11 09:01:51;;;;;;;9.98;4.80;;;57.20;1.00;;;;;;4995010;28;20241;-67
2023/08/11 09:04:20;;;;;;;8.15;5.35;;;57.10;1.00;;;;;;4998996;28;20208;-67
2023/08/11 09:06:47;;;;;;;5.13;4.43;;;57.20;1.00;;;;;;4996698;28;20275;-67
2023/08/11 09:09:15;;;;;;;6.10;3.95;;;57.20;1.00;;;;;;5004482;28;20209;-67
2023/08/11 09:11:43;;;;;;;7.43;4.13;;;56.80;1.00;;;;;;5007924;28;20220;-67
2023/08/11 09:14:10;;;;;;;5.57;4.18;;;56.80;1.00;;;;;;4999188;28;20204;-67
2023/08/11 09:16:38;;;;;;;7.57;3.97;;;57.20;1.00;;;;;;5005343;28;20208;-67
2023/08/11 09:19:07;;;;;;;5.32;4.15;;;57.30;1.00;;;;;;4992128;28;20220;-67
2023/08/11 09:21:34;;;;;;;6.05;4.20;;;57.60;1.00;;;;;;5001625;28;20213;-68
2023/08/11 09:24:01;;;;;;;4.88;3.42;;;57.60;1.00;;;;;;4997183;28;20583;-67
2023/08/11 09:26:29;;;;;;;7.43;3.65;;;57.30;1.00;;;;;;5005407;28;20207;-67
2023/08/11 09:28:56;;;;;;;4.70;3.70;;;57.20;1.00;;;;;;5004929;28;20232;-68
2023/08/11 09:31:23;;;;;;;6.82;3.88;;;57.60;1.00;;;;;;5006350;28;20227;-66
2023/08/11 09:33:51;;;;;;;4.35;3.08;;;57.50;1.00;;;;;;5006894;28;20720;-68
2023/08/11 09:36:18;;;;;;;5.45;3.97;;;57.20;1.00;;;;;;5004598;28;20673;-67
2023/08/11 09:38:45;;;;;;;6.55;3.20;;;57.00;1.00;;;;;;5003833;28;20605;-67
2023/08/11 09:41:12;;;;;;;4.07;3.03;;;57.20;1.00;;;;;;5000338;28;20193;-68
2023/08/11 09:43:45;;;;;;;7.10;3.30;;;57.20;1.00;;;;;;5000211;28;20249;-67
2023/08/11 09:46:12;;;;;;;6.20;3.70;;;57.50;1.00;;;;;;4993632;28;20677;-66
2023/08/11 09:48:39;;;;;;;5.68;3.53;;;57.50;1.00;;;;;;5004087;28;20220;-66
2023/08/11 09:51:10;;;;;;;6.80;3.88;;;57.00;1.00;;;;;;5008964;28;20208;-66
2023/08/11 09:53:38;;;;;;;5.00;4.10;;;55.90;1.00;;;;;;5011431;28;20208;-66
2023/08/11 09:56:06;;;;;;;5.13;3.40;;;55.60;1.00;;;;;;5009931;28;20204;-66
2023/08/11 09:58:36;;;;;;;5.10;4.13;;;55.40;1.00;;;;;;5011280;28;20231;-67
2023/08/11 10:01:05;;;;;;;7.77;4.50;;;55.90;1.00;;;;;;5007399;28;20243;-67
2023/08/11 10:03:42;;;;;;;5.30;4.33;;;55.80;1.00;;;;;;5011318;28;20622;-66
2023/08/11 10:06:11;;;;;;;5.80;4.03;;;55.40;1.00;;;;;;5009831;28;20658;-66
2023/08/11 10:08:38;;;;;;;7.13;4.13;;;55.30;1.00;;;;;;5012666;28;20470;-66
2023/08/11 10:11:06;;;;;;;5.57;4.57;;;55.60;1.00;;;;;;5008926;28;20463;-66
2023/08/11 10:13:34;;;;;;;6.53;4.90;;;55.40;1.00;;;;;;5007411;28;20459;-66
2023/08/11 10:16:01;;;;;;;5.67;3.90;;;55.10;1.00;;;;;;5010109;28;21031;-66
2023/08/11 10:18:31;;;;;;;5.73;3.93;;;55.30;1.00;;;;;;5011085;28;20487;-66
2023/08/11 10:20:58;;;;;;;4.63;3.47;;;55.30;1.00;;;;;;5010684;28;20636;-66
2023/08/11 10:23:25;;;;;;;6.33;3.80;;;54.80;1.00;;;;;;5011036;28;20486;-66
2023/08/11 10:25:52;;;;;;;7.67;3.43;;;53.20;1.00;;;;;;5008545;28;20463;-66
2023/08/11 10:30:56;;;;;;;7.40;3.80;;;49.80;1.00;;;;;;5002677;28;20451;-67
2023/08/11 10:33:24;;;;;;;6.43;3.80;;;48.00;1.00;;;;;;5005111;28;20493;-67
2023/08/11 10:35:54;;;;;;;6.43;4.20;;;46.50;1.00;;;;;;5009655;28;20491;-67
2023/08/11 10:38:26;;;;;;;5.93;4.40;;;45.10;1.00;;;;;;5002240;28;20518;-67
2023/08/11 10:40:59;;;;;;;8.53;5.73;;;43.70;1.00;;;;;;5005537;28;21050;-67
2023/08/11 10:43:31;;;;;;;6.90;4.37;;;42.50;1.00;;;;;;4996702;28;21002;-67
2023/08/11 10:46:13;;;;;;;5.90;4.77;;;41.40;1.00;;;;;;5008616;28;20842;-67
2023/08/11 10:48:40;;;;;;;6.83;4.63;;;40.70;1.00;;;;;;5006917;28;20485;-67
2023/08/11 10:51:30;;;;;;;6.00;3.93;;;39.90;1.00;;;;;;5008195;28;20467;-67
2023/08/11 10:54:00;;;;;;;7.93;4.87;;;39.30;1.00;;;;;;5007254;28;20471;-67
2023/08/11 10:56:32;;;;;;;8.30;5.33;;;38.90;1.00;;;;;;5005733;28;20518;-67
2023/08/11 10:59:12;;;;;;;6.47;4.13;;;38.20;1.00;;;;;;5006996;28;20471;-67
2023/08/11 11:01:41;;;;;;;8.03;4.27;;;37.40;1.00;;;;;;5009132;28;20479;-67
2023/08/11 11:04:09;;;;;;;9.30;4.93;;;36.60;1.00;;;;;;5010728;28;20495;-67
2023/08/11 11:06:38;;;;;;;6.40;3.33;;;36.10;1.00;;;;;;5014181;28;21200;-67
2023/08/11 11:09:05;;;;;;;5.90;3.60;;;35.70;1.00;;;;;;5007589;28;20480;-67
2023/08/11 11:11:32;;;;;;;5.60;3.27;;;35.40;1.00;;;;;;4995272;28;20498;-65
2023/08/11 11:14:00;;;;;;;6.60;4.70;;;35.10;1.00;;;;;;4998808;28;20543;-66
2023/08/11 11:16:28;;;;;;;6.60;4.10;;;34.80;1.00;;;;;;4999992;28;20468;-66
2023/08/11 11:18:54;;;;;;;5.20;3.67;;;34.50;1.00;;;;;;5006329;28;20502;-69
2023/08/11 11:21:21;;;;;;;9.63;3.47;;;34.20;1.00;;;;;;5001201;28;21007;-67
2023/08/11 11:23:51;;;;;;;5.20;3.00;;;33.90;1.00;;;;;;5003037;28;20848;-67
2023/08/11 11:26:23;;;;;;;5.00;3.40;;;33.70;1.00;;;;;;5001493;28;20468;-68
2023/08/11 11:28:50;;;;;;;4.93;3.20;;;33.60;1.00;;;;;;5003547;28;20487;-70
2023/08/11 11:31:19;;;;;;;7.50;3.13;;;33.40;1.00;;;;;;5004824;28;20526;-69
2023/08/11 11:33:46;;;;;;;5.63;3.30;;;33.20;1.00;;;;;;4998171;28;20465;-66
2023/08/11 11:36:13;;;;;;;5.57;3.10;;;33.00;1.00;;;;;;5001656;28;21019;-66
2023/08/11 11:38:41;;;;;;;4.70;3.20;;;32.70;1.00;;;;;;4998011;28;20516;-67
2023/08/11 11:41:11;;;;;;;5.57;3.67;;;32.60;1.00;;;;;;5003373;28;20956;-66
2023/08/11 11:43:38;;;;;;;5.60;3.20;;;32.40;1.00;;;;;;5001776;28;20492;-66
2023/08/11 11:46:11;;;;;;;8.10;2.93;;;32.30;1.00;;;;;;5004840;28;20533;-67
2023/08/11 11:48:38;;;;;;;5.30;3.70;;;32.20;1.00;;;;;;4999678;28;20555;-68
2023/08/11 11:51:05;;;;;;;8.73;3.53;;;32.10;1.00;;;;;;5003098;28;20468;-65
2023/08/11 11:53:32;;;;;;;6.10;4.13;;;31.90;1.00;;;;;;5005686;28;20460;-67
2023/08/11 11:55:59;;;;;;;7.80;3.90;;;31.80;1.00;;;;;;5003343;28;20838;-68
2023/08/11 11:58:27;;;;;;;6.27;3.27;;;31.70;1.00;;;;;;5005991;28;20988;-68
2023/08/11 12:00:55;;;;;;;6.10;3.50;;;31.60;1.00;;;;;;4984525;28;20550;-68
2023/08/11 12:03:23;;;;;;;5.93;3.50;;;31.60;1.00;;;;;;5007328;28;20483;-69
2023/08/11 12:05:49;;;;;;;5.87;3.70;;;31.50;1.00;;;;;;5003845;28;20496;-66
2023/08/11 12:08:20;;;;;;;6.17;3.73;;;31.40;1.00;;;;;;5001876;28;20488;-66
2023/08/11 12:10:59;;;;;;;5.50;3.73;;;31.40;1.00;;;;;;5103495;27;20538;-66
2023/08/11 12:13:27;;;;;;;5.37;3.77;;;31.20;1.00;;;;;;5099970;28;20855;-66
2023/08/11 12:15:54;;;;;;;6.80;3.30;;;31.10;1.00;;;;;;5093084;28;20464;-66
2023/08/11 12:18:21;;;;;;;7.37;3.60;;;31.00;1.00;;;;;;5090263;28;20483;-65
2023/08/11 12:20:47;;;;;;;6.40;3.53;;;30.90;1.00;;;;;;5096234;28;20490;-65
2023/08/11 12:23:14;;;;;;;5.37;3.30;;;30.80;1.00;;;;;;5096047;28;20818;-65
2023/08/11 12:25:41;;;;;;;6.20;3.70;;;30.70;1.00;;;;;;5093406;28;20459;-67
2023/08/11 12:28:09;;;;;;;6.23;3.60;;;30.60;1.00;;;;;;5085574;28;21010;-68
2023/08/11 12:30:36;;;;;;;5.93;3.60;;;30.60;1.00;;;;;;5090944;28;20459;-68
2023/08/11 12:33:03;;;;;;;5.17;3.40;;;30.60;1.00;;;;;;5093901;28;20470;-68
2023/08/11 12:35:29;;;;;;;5.00;3.60;;;30.40;1.00;;;;;;5090279;28;21004;-68
2023/08/11 12:37:56;;;;;;;5.57;3.47;;;30.30;1.00;;;;;;5099262;28;20890;-68
2023/08/11 12:40:24;;;;;;;6.10;3.57;;;30.20;1.00;;;;;;5091407;28;20472;-68
2023/08/11 12:42:51;;;;;;;6.07;3.90;;;30.10;1.00;;;;;;5100111;28;20489;-67
2023/08/11 12:45:19;;;;;;;5.80;3.00;;;30.10;1.00;;;;;;5093136;28;20514;-67
2023/08/11 12:47:46;;;;;;;5.47;2.97;;;30.00;1.00;;;;;;5097388;28;20484;-68
2023/08/11 12:50:13;;;;;;;6.07;2.87;;;30.00;1.00;;;;;;5093440;28;20478;-68
2023/08/11 12:52:40;;;;;;;6.50;3.00;;;29.90;1.00;;;;;;5098595;28;20486;-68
2023/08/11 12:55:09;;;;;;;5.30;3.63;;;29.80;1.00;;;;;;5095974;28;20463;-69
2023/08/11 12:57:37;;;;;;;7.70;3.37;;;29.80;1.00;;;;;;5093829;28;20479;-68
2023/08/11 13:00:06;;;;;;;4.73;3.03;;;29.80;1.00;;;;;;5092982;28;20456;-68